createdAt,value
2019-02-07T00:00:43.038Z,100495.93
2019-02-07T00:03:11.136Z,100488.82
2019-02-07T00:05:39.199Z,100485.32
2019-02-07T00:08:07.234Z,100483.08
2019-02-07T00:10:36.963Z,100486.54
2019-02-07T00:13:04.959Z,100484.30
2019-02-07T00:15:33.109Z,100482.11
2019-02-07T00:18:01.211Z,100482.09
2019-02-07T00:20:29.245Z,100477.71
2019-02-07T00:22:57.243Z,100482.53
2019-02-07T00:25:25.358Z,100475.95
2019-02-07T00:27:53.678Z,100467.99
2019-02-07T00:30:21.658Z,100459.22
2019-02-07T00:32:49.732Z,100455.64
2019-02-07T00:35:17.806Z,100445.05
2019-02-07T00:37:45.804Z,100436.23
2019-02-07T00:40:14.560Z,100438.88
2019-02-07T00:42:43.063Z,100430.13
2019-02-07T00:45:33.280Z,100422.16
2019-02-07T00:48:01.248Z,100416.87
2019-02-07T00:50:31.148Z,100415.55
2019-02-07T00:52:59.070Z,100412.88
2019-02-07T00:55:27.128Z,100413.34
2019-02-07T00:57:55.106Z,100412.92
2019-02-07T01:00:24.151Z,100408.94
2019-02-07T01:02:52.218Z,100403.61
2019-02-07T01:05:21.474Z,100398.32
2019-02-07T01:07:49.491Z,100390.88
2019-02-07T01:10:21.887Z,100389.51
2019-02-07T01:12:49.881Z,100385.11
2019-02-07T01:15:17.982Z,100386.95
2019-02-07T01:17:46.082Z,100378.07
2019-02-07T01:20:14.804Z,100378.97
2019-02-07T01:22:42.813Z,100378.99
2019-02-07T01:25:13.535Z,100377.18
2019-02-07T01:27:41.496Z,100372.74
2019-02-07T01:30:11.315Z,100367.89
2019-02-07T01:32:39.303Z,100362.60
2019-02-07T01:35:07.406Z,100363.45
2019-02-07T01:37:35.364Z,100357.31
2019-02-07T01:40:03.429Z,100345.45
2019-02-07T01:42:31.746Z,100346.35
2019-02-07T01:44:59.794Z,100341.03
2019-02-07T01:47:27.802Z,100335.30
2019-02-07T01:49:55.770Z,100327.45
2019-02-07T01:52:23.780Z,100323.86
2019-02-07T01:54:51.888Z,100317.22
2019-02-07T01:57:19.916Z,100306.62
2019-02-07T01:59:47.917Z,100297.38
2019-02-07T02:02:15.914Z,100297.86
2019-02-07T02:04:43.934Z,100304.07
2019-02-07T02:07:11.938Z,100294.29
2019-02-07T02:09:39.933Z,100282.35
2019-02-07T02:12:07.926Z,100282.86
2019-02-07T02:14:36.245Z,100275.45
2019-02-07T02:17:04.292Z,100270.16
2019-02-07T02:19:32.327Z,100265.32
2019-02-07T02:22:00.300Z,100255.59
2019-02-07T02:24:28.268Z,100254.72
2019-02-07T02:26:56.293Z,100252.02
2019-02-07T02:29:24.285Z,100244.08
2019-02-07T02:31:54.053Z,100242.34
2019-02-07T02:34:22.133Z,100236.11
2019-02-07T02:36:50.163Z,100225.14
2019-02-07T02:39:18.143Z,100215.85
2019-02-07T02:41:46.165Z,100211.89
2019-02-07T02:44:14.159Z,100215.02
2019-02-07T02:46:42.204Z,100207.91
2019-02-07T02:49:10.427Z,100213.11
2019-02-07T02:51:38.463Z,100199.02
2019-02-07T02:54:09.670Z,100195.95
2019-02-07T02:56:37.642Z,100194.20
2019-02-07T02:59:05.692Z,100193.16
2019-02-07T03:01:44.744Z,100186.66
2019-02-07T03:04:21.367Z,100172.63
2019-02-07T03:07:07.000Z,100155.36
2019-02-07T03:09:59.752Z,100161.03
2019-02-07T03:12:42.309Z,100164.50
2019-02-07T03:15:30.224Z,100155.28
2019-02-07T03:18:23.729Z,100147.38
2019-02-07T03:21:19.962Z,100137.63
2019-02-07T03:24:21.900Z,100135.97
2019-02-07T03:26:58.461Z,100130.19
2019-02-07T03:29:45.459Z,100122.70
2019-02-07T03:32:32.509Z,100139.86
2019-02-07T03:35:22.683Z,100130.19
2019-02-07T03:38:08.405Z,100133.66
2019-02-07T03:41:13.743Z,100135.85
2019-02-07T03:43:57.590Z,100135.47
2019-02-07T03:46:45.883Z,100131.55
2019-02-07T03:49:31.213Z,100124.02
2019-02-07T03:52:36.708Z,100124.89
2019-02-07T03:55:23.855Z,100119.10
2019-02-07T03:58:09.363Z,100110.83
2019-02-07T04:01:03.832Z,100106.29
2019-02-07T04:03:53.567Z,100112.08
2019-02-07T04:06:46.559Z,100115.14
2019-02-07T04:09:36.548Z,100110.34
2019-02-07T04:12:26.612Z,100087.89
2019-02-07T04:15:16.584Z,100061.84
2019-02-07T04:18:21.770Z,100063.59
2019-02-07T04:21:14.540Z,100052.76
2019-02-07T04:24:04.536Z,100061.19
2019-02-07T04:26:51.522Z,100065.44
2019-02-07T04:29:36.435Z,100058.79
2019-02-07T04:32:29.319Z,100059.66
2019-02-07T04:35:16.273Z,100050.48
2019-02-07T04:38:09.250Z,100048.16
2019-02-07T04:41:02.711Z,100042.83
2019-02-07T04:43:55.564Z,100028.27
2019-02-07T04:46:41.339Z,100019.83
2019-02-07T04:49:27.512Z,100023.48
2019-02-07T04:52:16.215Z,100020.47
2019-02-07T04:55:12.235Z,100017.33
2019-02-07T04:58:17.647Z,100009.02
2019-02-07T05:01:03.120Z,99999.52
2019-02-07T05:03:52.926Z,99996.93
2019-02-07T05:06:40.841Z,99992.45
2019-02-07T05:09:30.554Z,99984.56
2019-02-07T05:12:16.794Z,99988.89
2019-02-07T05:15:18.889Z,99980.03
2019-02-07T05:17:57.908Z,99973.41
2019-02-07T05:20:43.654Z,99966.40
2019-02-07T05:23:29.292Z,99970.06
2019-02-07T05:26:16.247Z,99967.33
2019-02-07T05:29:02.093Z,99961.06
2019-02-07T05:31:55.164Z,99958.05
2019-02-07T05:34:51.708Z,99946.23
2019-02-07T05:37:57.122Z,99946.30
2019-02-07T05:40:36.196Z,99951.49
2019-02-07T05:43:20.980Z,99936.32
2019-02-07T05:46:07.916Z,99939.87
2019-02-07T05:48:53.751Z,99926.64
2019-02-07T05:51:39.158Z,99925.33
2019-02-07T05:54:37.993Z,99926.13
2019-02-07T05:57:25.023Z,99923.48
2019-02-07T06:00:17.525Z,99920.59
2019-02-07T06:03:03.438Z,99914.33
2019-02-07T06:05:51.415Z,99922.73
2019-02-07T06:08:28.716Z,99910.13
2019-02-07T06:11:15.627Z,99911.63
2019-02-07T06:14:08.678Z,99908.11
2019-02-07T06:17:02.197Z,99897.55
2019-02-07T06:19:45.755Z,99898.29
2019-02-07T06:22:38.594Z,99892.59
2019-02-07T06:25:18.905Z,99893.56
2019-02-07T06:28:08.881Z,99890.12
2019-02-07T06:31:07.792Z,99878.55
2019-02-07T06:33:57.965Z,99879.00
2019-02-07T06:36:35.868Z,99885.67
2019-02-07T06:39:28.559Z,99878.95
2019-02-07T06:42:06.397Z,99871.94
2019-02-07T06:44:56.092Z,99860.55
2019-02-07T06:47:43.014Z,99861.30
2019-02-07T06:50:23.918Z,99863.47
2019-02-07T06:53:11.361Z,99853.76
2019-02-07T06:55:56.850Z,99848.97
2019-02-07T06:58:48.854Z,99845.86
2019-02-07T07:01:38.873Z,99850.81
2019-02-07T07:04:24.659Z,99845.94
2019-02-07T07:07:11.655Z,99705.16
2019-02-07T07:09:55.763Z,99842.41
2019-02-07T07:12:42.793Z,99836.86
2019-02-07T07:15:19.201Z,99827.88
2019-02-07T07:17:55.853Z,99827.59
2019-02-07T07:20:43.117Z,99830.24
2019-02-07T07:23:40.765Z,99828.79
2019-02-07T07:26:26.546Z,99832.42
2019-02-07T07:29:10.594Z,99830.63
2019-02-07T07:31:56.664Z,99825.35
2019-02-07T07:34:43.671Z,99829.72
2019-02-07T07:37:27.324Z,99827.08
2019-02-07T07:40:20.360Z,99825.28
2019-02-07T07:43:05.812Z,99823.91
2019-02-07T07:46:10.854Z,99818.61
2019-02-07T07:48:50.946Z,99818.66
2019-02-07T07:51:37.908Z,99812.52
2019-02-07T07:54:31.045Z,99807.41
2019-02-07T07:57:20.222Z,99807.73
2019-02-07T08:00:06.102Z,99804.06
2019-02-07T08:03:02.036Z,99797.50
2019-02-07T08:05:36.712Z,99790.08
2019-02-07T08:08:27.767Z,99782.99
2019-02-07T08:11:07.026Z,99786.98
2019-02-07T08:13:53.129Z,99788.77
2019-02-07T08:16:55.267Z,99784.31
2019-02-07T08:19:40.996Z,99778.45
2019-02-07T08:22:36.970Z,99777.97
2019-02-07T08:25:54.127Z,99765.63
2019-02-07T08:28:56.148Z,99775.61
2019-02-07T08:32:01.209Z,99767.20
2019-02-07T08:34:48.189Z,99757.94
2019-02-07T08:37:34.173Z,99761.30
2019-02-07T08:40:19.296Z,99761.16
2019-02-07T08:43:09.331Z,99758.20
2019-02-07T08:45:56.299Z,99757.59
2019-02-07T08:48:43.213Z,99757.59
2019-02-07T08:51:30.863Z,99757.05
2019-02-07T08:54:36.190Z,99750.42
2019-02-07T08:57:19.796Z,99747.25
2019-02-07T09:00:18.816Z,99752.78
2019-02-07T09:03:04.453Z,99758.99
2019-02-07T09:05:52.060Z,99749.51
2019-02-07T09:08:47.845Z,99751.66
2019-02-07T09:11:33.808Z,99751.38
2019-02-07T09:14:29.868Z,99751.83
2019-02-07T09:17:17.200Z,99746.92
2019-02-07T09:20:04.207Z,99746.28
2019-02-07T09:22:49.651Z,99752.30
2019-02-07T09:25:39.743Z,99754.88
2019-02-07T09:28:25.631Z,99751.77
2019-02-07T09:31:10.569Z,99750.03
2019-02-07T09:34:03.232Z,99744.75
2019-02-07T09:36:41.993Z,99741.64
2019-02-07T09:39:28.969Z,99743.36
2019-02-07T09:42:14.543Z,99739.99
2019-02-07T09:44:58.409Z,99744.75
2019-02-07T09:47:46.628Z,99741.70
2019-02-07T09:50:28.915Z,99743.81
2019-02-07T09:53:24.001Z,99741.23
2019-02-07T09:56:06.773Z,99736.31
2019-02-07T09:58:52.617Z,99733.59
2019-02-07T10:01:38.382Z,99735.87
2019-02-07T10:04:28.596Z,99734.94
2019-02-07T10:07:14.158Z,99736.24
2019-02-07T10:10:00.096Z,99733.70
2019-02-07T10:12:45.732Z,99733.98
2019-02-07T10:15:31.254Z,99736.17
2019-02-07T10:18:15.292Z,99737.91
2019-02-07T10:21:00.651Z,99730.03
2019-02-07T10:23:56.886Z,99735.16
2019-02-07T10:26:35.564Z,99739.37
2019-02-07T10:29:21.126Z,99744.14
2019-02-07T10:32:26.353Z,99741.10
2019-02-07T10:35:22.647Z,99745.43
2019-02-07T10:38:01.979Z,99738.30
2019-02-07T10:40:43.751Z,99730.33
2019-02-07T10:43:29.531Z,99736.08
2019-02-07T10:46:23.473Z,99722.23
2019-02-07T10:49:22.637Z,99724.15
2019-02-07T10:52:10.540Z,99717.31
2019-02-07T10:55:03.308Z,99719.63
2019-02-07T10:57:51.538Z,99722.44
2019-02-07T11:00:37.993Z,99733.06
2019-02-07T11:03:25.060Z,99722.69
2019-02-07T11:06:10.752Z,99725.02
2019-02-07T11:08:57.226Z,99718.83
2019-02-07T11:11:45.994Z,99715.15
2019-02-07T11:14:42.188Z,99720.28
2019-02-07T11:17:27.711Z,99710.39
2019-02-07T11:20:17.744Z,99706.22
2019-02-07T11:23:06.740Z,99715.05
2019-02-07T11:25:52.607Z,99703.87
2019-02-07T11:28:45.705Z,99709.54
2019-02-07T11:31:32.971Z,99706.58
2019-02-07T11:34:10.603Z,99708.03
2019-02-07T11:36:57.134Z,99698.25
2019-02-07T11:39:44.131Z,99699.23
2019-02-07T11:42:31.152Z,99695.81
2019-02-07T11:45:17.989Z,99689.81
2019-02-07T11:48:10.874Z,99684.31
2019-02-07T11:51:01.955Z,99689.20
2019-02-07T11:53:43.417Z,99692.88
2019-02-07T11:56:36.697Z,99694.97
2019-02-07T11:59:12.915Z,99696.24
2019-02-07T12:02:09.536Z,99688.14
2019-02-07T12:04:47.870Z,99698.70
2019-02-07T12:07:33.622Z,99695.73
2019-02-07T12:10:23.504Z,99689.50
2019-02-07T12:13:03.721Z,99683.13
2019-02-07T12:16:00.236Z,99688.08
2019-02-07T12:18:50.298Z,99677.11
2019-02-07T12:21:49.154Z,99668.73
2019-02-07T12:24:34.838Z,99679.41
2019-02-07T12:27:20.494Z,99677.27
2019-02-07T12:30:10.720Z,99682.04
2019-02-07T12:32:44.443Z,99681.95
2019-02-07T12:35:43.197Z,99674.80
2019-02-07T12:38:30.808Z,99667.63
2019-02-07T12:41:17.761Z,99672.31
2019-02-07T12:44:07.804Z,99678.83
2019-02-07T12:46:53.325Z,99674.58
2019-02-07T12:49:49.708Z,99667.92
2019-02-07T12:52:28.997Z,99661.67
2019-02-07T12:55:16.389Z,99661.31
2019-02-07T12:58:14.271Z,99669.88
2019-02-07T13:01:13.864Z,99670.59
2019-02-07T13:04:01.836Z,99667.31
2019-02-07T13:06:47.400Z,99671.73
2019-02-07T13:09:33.546Z,99669.34
2019-02-07T13:12:24.284Z,99671.55
2019-02-07T13:15:09.335Z,99671.61
2019-02-07T13:17:56.334Z,99675.79
2019-02-07T13:20:36.659Z,99673.56
2019-02-07T13:23:39.258Z,99668.64
2019-02-07T13:26:26.291Z,99657.79
2019-02-07T13:29:13.357Z,99661.53
2019-02-07T13:32:09.657Z,99661.57
2019-02-07T13:34:55.531Z,99332.13
2019-02-07T13:37:41.642Z,99655.06
2019-02-07T13:40:29.266Z,99655.70
2019-02-07T13:43:31.368Z,99646.95
2019-02-07T13:46:24.143Z,99647.53
2019-02-07T13:49:15.569Z,99638.65
2019-02-07T13:52:02.581Z,99632.45
2019-02-07T13:54:36.952Z,99642.19
2019-02-07T13:57:24.990Z,99642.33
2019-02-07T14:00:26.927Z,99644.89
2019-02-07T14:03:09.773Z,99648.91
2019-02-07T14:05:56.822Z,99659.09
2019-02-07T14:08:52.785Z,99659.88
2019-02-07T14:11:42.823Z,99664.59
2019-02-07T14:14:38.955Z,99667.95
2019-02-07T14:17:37.954Z,99672.16
2019-02-07T14:20:26.280Z,99664.72
2019-02-07T14:23:06.878Z,99669.93
2019-02-07T14:26:00.362Z,99684.30
2019-02-07T14:28:38.842Z,99683.17
2019-02-07T14:31:32.010Z,99694.03
2019-02-07T14:34:17.788Z,99696.75
2019-02-07T14:37:13.841Z,99697.41
2019-02-07T14:39:59.260Z,99702.44
2019-02-07T14:42:46.263Z,99700.71
2019-02-07T14:45:32.229Z,99700.67
2019-02-07T14:48:00.387Z,99699.91
2019-02-07T14:50:28.629Z,99705.42
2019-02-07T14:52:56.662Z,99708.77
2019-02-07T14:55:24.960Z,99712.13
2019-02-07T14:57:52.990Z,99706.72
2019-02-07T15:00:22.883Z,99705.38
2019-02-07T15:02:50.943Z,99711.86
2019-02-07T15:05:19.047Z,99704.16
2019-02-07T15:07:47.061Z,99709.02
2019-02-07T15:10:16.745Z,99706.00
2019-02-07T15:12:44.773Z,99696.54
2019-02-07T15:15:13.911Z,99710.93
2019-02-07T15:17:41.922Z,99704.66
2019-02-07T15:20:10.092Z,99702.58
2019-02-07T15:22:38.172Z,99702.33
2019-02-07T15:25:06.668Z,99699.31
2019-02-07T15:27:35.170Z,99699.52
2019-02-07T15:30:03.219Z,99708.05
2019-02-07T15:32:31.801Z,99710.80
2019-02-07T15:34:59.792Z,99715.89
2019-02-07T15:37:27.906Z,99714.41
2019-02-07T15:39:56.022Z,99708.15
2019-02-07T15:42:24.273Z,99712.56
2019-02-07T15:44:52.740Z,99721.02
2019-02-07T15:47:20.870Z,99718.09
2019-02-07T15:49:49.024Z,99718.02
2019-02-07T15:52:17.164Z,99713.32
2019-02-07T15:54:45.270Z,99716.44
2019-02-07T15:57:13.298Z,99720.86
2019-02-07T15:59:53.320Z,99721.05
2019-02-07T16:02:35.461Z,99718.89
2019-02-07T16:05:04.203Z,99718.91
2019-02-07T16:07:32.321Z,99723.44
2019-02-07T16:10:00.451Z,99725.03
2019-02-07T16:12:29.021Z,99718.55
2019-02-07T16:14:57.245Z,99725.50
2019-02-07T16:17:25.820Z,99722.16
2019-02-07T16:19:53.972Z,99723.98
2019-02-07T16:22:22.686Z,99726.52
2019-02-07T16:24:50.813Z,99730.75
2019-02-07T16:27:19.441Z,99729.33
2019-02-07T16:29:47.595Z,99730.66
2019-02-07T16:32:15.720Z,99726.85
2019-02-07T16:34:44.805Z,99718.94
2019-02-07T16:37:13.416Z,99720.41
2019-02-07T16:39:41.994Z,99723.23
2019-02-07T16:42:10.244Z,99724.03
2019-02-07T16:44:38.392Z,99722.79
2019-02-07T16:47:06.586Z,99726.80
2019-02-07T16:49:34.973Z,99724.61
2019-02-07T16:52:03.287Z,99717.75
2019-02-07T16:54:31.444Z,99718.47
2019-02-07T16:56:59.650Z,99724.44
2019-02-07T16:59:28.170Z,99730.38
2019-02-07T17:01:56.404Z,99738.03
2019-02-07T17:04:24.579Z,99736.05
2019-02-07T17:06:52.742Z,99736.50
2019-02-07T17:09:30.545Z,99740.41
2019-02-07T17:12:00.921Z,99745.42
2019-02-07T17:14:29.170Z,99753.47
2019-02-07T17:16:57.647Z,99747.49
2019-02-07T17:19:26.327Z,99753.87
2019-02-07T17:21:54.491Z,99755.81
2019-02-07T17:24:22.970Z,99761.58
2019-02-07T17:26:51.637Z,99767.56
2019-02-07T17:29:20.291Z,99763.56
2019-02-07T17:31:48.836Z,99766.33
2019-02-07T17:34:17.316Z,99769.51
2019-02-07T17:36:45.570Z,99776.66
2019-02-07T17:39:13.748Z,99783.55
2019-02-07T17:41:42.031Z,99787.66
2019-02-07T17:44:10.223Z,99790.94
2019-02-07T17:46:38.858Z,99787.98
2019-02-07T17:49:07.060Z,99792.60
2019-02-07T17:51:35.175Z,99791.28
2019-02-07T17:54:03.698Z,99797.87
2019-02-07T17:56:31.993Z,99799.97
2019-02-07T17:59:00.087Z,99802.23
2019-02-07T18:01:28.212Z,99802.11
2019-02-07T18:03:56.349Z,99810.30
2019-02-07T18:06:24.523Z,99807.25
2019-02-07T18:08:52.692Z,99808.55
2019-02-07T18:11:20.778Z,99815.20
2019-02-07T18:13:49.026Z,99810.29
2019-02-07T18:16:17.547Z,99811.20
2019-02-07T18:18:46.243Z,99812.94
2019-02-07T18:21:15.515Z,99802.34
2019-02-07T18:23:43.621Z,99803.27
2019-02-07T18:26:11.874Z,99813.40
2019-02-07T18:28:40.115Z,99828.83
2019-02-07T18:31:08.538Z,99825.26
2019-02-07T18:33:37.155Z,99820.42
2019-02-07T18:36:06.173Z,99810.75
2019-02-07T18:38:34.869Z,99821.52
2019-02-07T18:41:03.689Z,99819.41
2019-02-07T18:43:32.351Z,99817.16
2019-02-07T18:46:00.685Z,99823.28
2019-02-07T18:48:30.089Z,99829.86
2019-02-07T18:50:58.320Z,99834.69
2019-02-07T18:53:27.108Z,99835.20
2019-02-07T18:55:56.586Z,99840.84
2019-02-07T18:58:25.628Z,99845.38
2019-02-07T19:00:54.825Z,99847.16
2019-02-07T19:03:23.182Z,99842.88
2019-02-07T19:05:51.694Z,99843.25
2019-02-07T19:08:21.065Z,99845.52
2019-02-07T19:10:49.878Z,99843.73
2019-02-07T19:13:19.052Z,99842.47
2019-02-07T19:15:57.993Z,99853.31
2019-02-07T19:18:26.800Z,99848.09
2019-02-07T19:20:55.822Z,99851.66
2019-02-07T19:23:24.847Z,99637.19
2019-02-07T19:25:53.721Z,99851.62
2019-02-07T19:28:22.644Z,99853.38
2019-02-07T19:30:51.444Z,99855.64
2019-02-07T19:33:22.447Z,99861.39
2019-02-07T19:35:51.015Z,99863.66
2019-02-07T19:38:20.363Z,99869.34
2019-02-07T19:40:49.452Z,99863.74
2019-02-07T19:43:18.719Z,99873.16
2019-02-07T19:45:48.101Z,99867.92
2019-02-07T19:48:17.146Z,99871.95
2019-02-07T19:50:46.731Z,99880.50
2019-02-07T19:53:15.763Z,99750.25
2019-02-07T19:55:45.157Z,99881.97
2019-02-07T19:58:14.578Z,99881.17
2019-02-07T20:00:43.636Z,99879.91
2019-02-07T20:03:12.718Z,99878.05
2019-02-07T20:05:41.811Z,99879.84
2019-02-07T20:08:10.344Z,99873.69
2019-02-07T20:10:39.564Z,99882.95
2019-02-07T20:13:09.550Z,99884.29
2019-02-07T20:15:40.507Z,99880.61
2019-02-07T20:18:10.807Z,99882.81
2019-02-07T20:20:40.238Z,99883.80
2019-02-07T20:23:08.893Z,99882.37
2019-02-07T20:25:38.493Z,99877.27
2019-02-07T20:28:07.337Z,99890.56
2019-02-07T20:30:38.450Z,99886.27
2019-02-07T20:33:08.837Z,99885.08
2019-02-07T20:35:38.222Z,99888.13
2019-02-07T20:38:07.787Z,99892.22
2019-02-07T20:40:37.075Z,99888.09
2019-02-07T20:43:05.945Z,99893.86
2019-02-07T20:45:35.124Z,99891.37
2019-02-07T20:48:04.630Z,99897.05
2019-02-07T20:50:33.551Z,99888.48
2019-02-07T20:53:02.024Z,99883.27
2019-02-07T20:55:31.138Z,99895.20
2019-02-07T20:58:00.215Z,99897.07
2019-02-07T21:00:33.275Z,99895.13
2019-02-07T21:03:02.367Z,99904.94
2019-02-07T21:05:31.623Z,99903.92
2019-02-07T21:08:00.495Z,99904.54
2019-02-07T21:10:31.053Z,99904.61
2019-02-07T21:12:59.802Z,99913.58
2019-02-07T21:15:33.315Z,99907.89
2019-02-07T21:18:01.998Z,99911.75
2019-02-07T21:20:31.111Z,99908.59
2019-02-07T21:23:00.458Z,99912.67
2019-02-07T21:25:48.865Z,99916.04
2019-02-07T21:28:17.666Z,99924.17
2019-02-07T21:30:46.272Z,99925.08
2019-02-07T21:33:14.803Z,99926.83
2019-02-07T21:35:43.718Z,99932.94
2019-02-07T21:38:12.570Z,99929.33
2019-02-07T21:40:41.584Z,99925.30
2019-02-07T21:43:11.054Z,99938.00
2019-02-07T21:45:39.677Z,99929.97
2019-02-07T21:48:10.530Z,99936.91
2019-02-07T21:50:39.337Z,99939.81
2019-02-07T21:53:08.511Z,99941.97
2019-02-07T21:55:36.849Z,99953.55
2019-02-07T21:58:05.347Z,99814.23
2019-02-07T22:00:36.163Z,99950.23
2019-02-07T22:03:04.946Z,99961.73
2019-02-07T22:05:33.768Z,99963.37
2019-02-07T22:08:02.271Z,99955.50
2019-02-07T22:10:30.792Z,99952.86
2019-02-07T22:12:59.481Z,99954.47
2019-02-07T22:15:29.558Z,99963.22
2019-02-07T22:17:57.615Z,99968.22
2019-02-07T22:20:26.152Z,99973.61
2019-02-07T22:22:54.341Z,99980.16
2019-02-07T22:25:22.507Z,99976.64
2019-02-07T22:27:50.550Z,99984.85
2019-02-07T22:30:24.143Z,99987.80
2019-02-07T22:32:52.082Z,99994.52
2019-02-07T22:35:20.148Z,100000.74
2019-02-07T22:37:48.174Z,99998.30
2019-02-07T22:40:18.214Z,100003.75
2019-02-07T22:42:47.931Z,99996.97
2019-02-07T22:45:16.515Z,100006.83
2019-02-07T22:47:44.925Z,100009.09
2019-02-07T22:50:16.052Z,100017.13
2019-02-07T22:52:44.119Z,100017.47
2019-02-07T22:55:12.191Z,100018.98
2019-02-07T22:57:40.605Z,100026.02
2019-02-07T23:01:00.495Z,100021.92
2019-02-07T23:03:28.489Z,100021.43
2019-02-07T23:05:56.550Z,100023.32
2019-02-07T23:08:26.280Z,100037.44
2019-02-07T23:10:54.270Z,100025.03
2019-02-07T23:13:22.270Z,100032.81
2019-02-07T23:15:50.312Z,100027.37
2019-02-07T23:18:18.360Z,100035.30
2019-02-07T23:20:46.356Z,100027.34
2019-02-07T23:23:14.406Z,100034.33
2019-02-07T23:25:42.706Z,100028.98
2019-02-07T23:28:10.706Z,100034.57
2019-02-07T23:30:38.710Z,100036.27
2019-02-07T23:33:06.809Z,100037.81
2019-02-07T23:35:34.850Z,100033.52
2019-02-07T23:38:02.877Z,100035.85
2019-02-07T23:40:30.906Z,100050.88
2019-02-07T23:42:59.228Z,100047.89
2019-02-07T23:45:27.233Z,100043.59
2019-02-07T23:47:55.218Z,100046.70
2019-02-07T23:50:23.283Z,100054.37
2019-02-07T23:52:51.326Z,100054.28
2019-02-07T23:55:19.335Z,100058.59
2019-02-07T23:57:47.519Z,100056.55
